Terminal Aerodrome Forecast
Issued by NWS Jackson, MS

Home | Current Version | Previous Version | Text Only | Print | Product List | Glossary On
Versions: 1 2 3 4 5 6 7 8 9 10 11 12 13 14 15 16 17 18
000
FTUS44 KJAN 030500 RRA
TAFGWO
TAF
KGWO 030541Z 0306/0406 VRB04KT P6SM BKN008
     FM030700 VRB04KT 5SM BR BKN007
     FM031100 VRB04KT 2SM BR BKN003
     FM031500 26004KT P6SM OVC020
     FM031800 01002KT P6SM VCTS BKN040CB
     FM032300 12004KT P6SM SCT050=

USA.gov is the U.S. government's official web portal to all federal, state and local government web resources and services.